Time;durP1;ratioP1;P1;durP2;ratioP2;P2;SDS_P1;SDS_P2;PMS_P1;PMS_P2;Temp;Humidity;BMP_temperature;BMP_pressure;BME280_temperature;BME280_humidity;BME280_pressure;Samples;Min_cycle;Max_cycle;Signal;HPM_P1;HPM_P2
2023/08/06 00:00:25;;;;;;;14.82;13.15;;;15.30;86.20;;;;;;5016928;28;20048;-78
2023/08/06 00:02:51;;;;;;;15.65;14.00;;;15.40;86.30;;;;;;5033175;28;20172;-78
2023/08/06 00:05:23;;;;;;;13.57;12.18;;;15.40;86.30;;;;;;5000908;28;20045;-79
2023/08/06 00:07:49;;;;;;;15.00;13.40;;;15.40;86.30;;;;;;5016747;28;20098;-79
2023/08/06 00:10:15;;;;;;;17.20;15.35;;;15.40;86.30;;;;;;5017382;28;20057;-79
2023/08/06 00:12:41;;;;;;;14.00;12.70;;;15.40;86.30;;;;;;5034177;28;20075;-78
2023/08/06 00:15:07;;;;;;;14.63;13.13;;;15.40;86.30;;;;;;5033254;28;20131;-78
2023/08/06 00:17:34;;;;;;;14.02;12.55;;;15.40;86.40;;;;;;5015969;28;20041;-78
2023/08/06 00:20:04;;;;;;;12.95;11.63;;;15.40;86.40;;;;;;5015476;28;20397;-78
2023/08/06 00:22:31;;;;;;;13.68;11.75;;;15.40;86.40;;;;;;5031468;28;20041;-78
2023/08/06 00:24:57;;;;;;;14.25;12.85;;;15.40;86.40;;;;;;5030907;28;20493;-78
2023/08/06 00:27:23;;;;;;;15.98;13.05;;;15.40;86.30;;;;;;4998263;28;20037;-78
2023/08/06 00:29:49;;;;;;;13.27;11.95;;;15.40;86.30;;;;;;5014607;28;20045;-78
2023/08/06 00:32:14;;;;;;;12.10;11.00;;;15.40;86.30;;;;;;5014328;28;20037;-78
2023/08/06 00:34:40;;;;;;;13.00;11.70;;;15.40;86.20;;;;;;5014455;28;20045;-79
2023/08/06 00:37:06;;;;;;;13.18;11.43;;;15.40;86.20;;;;;;5013953;28;20041;-77
2023/08/06 00:39:32;;;;;;;12.52;11.20;;;15.40;86.10;;;;;;5013817;28;20044;-76
2023/08/06 00:41:58;;;;;;;12.50;11.25;;;15.40;86.10;;;;;;5030051;28;20386;-76
2023/08/06 00:44:24;;;;;;;14.30;11.88;;;15.50;86.50;;;;;;5030171;28;20095;-77
2023/08/06 00:46:50;;;;;;;11.65;10.45;;;15.40;86.00;;;;;;5013550;28;20091;-76
2023/08/06 00:49:16;;;;;;;12.13;10.93;;;15.40;86.00;;;;;;4997346;28;20033;-77
2023/08/06 00:51:42;;;;;;;13.38;12.00;;;15.50;86.00;;;;;;5013730;28;20131;-77
2023/08/06 00:54:09;;;;;;;12.93;11.45;;;15.40;86.00;;;;;;5013485;28;20052;-76
2023/08/06 00:56:36;;;;;;;12.73;11.15;;;15.50;86.00;;;;;;5030015;28;20044;-77
2023/08/06 00:59:04;;;;;;;10.80;9.70;;;15.50;85.90;;;;;;5013806;28;20084;-76
2023/08/06 01:01:30;;;;;;;11.38;10.27;;;15.50;85.80;;;;;;5013485;28;20048;-76
2023/08/06 01:03:56;;;;;;;13.63;10.15;;;15.50;85.80;;;;;;5013793;28;20045;-76
2023/08/06 01:06:36;;;;;;;10.90;9.80;;;15.50;85.70;;;;;;5013470;28;20122;-77
2023/08/06 01:09:15;;;;;;;11.20;10.10;;;15.50;85.70;;;;;;5013375;28;20425;-77
2023/08/06 01:12:09;;;;;;;11.07;9.90;;;15.50;85.70;;;;;;5013307;28;20118;-77
2023/08/06 01:14:46;;;;;;;11.23;10.10;;;15.40;85.40;;;;;;5029097;28;20507;-77
2023/08/06 01:17:13;;;;;;;10.70;9.60;;;15.40;85.50;;;;;;5029652;28;20091;-76
2023/08/06 01:19:39;;;;;;;11.70;10.35;;;15.40;85.50;;;;;;5013230;28;20520;-77
2023/08/06 01:22:05;;;;;;;10.57;9.57;;;15.40;85.50;;;;;;5031360;28;20124;-76
2023/08/06 01:24:30;;;;;;;10.07;9.10;;;15.40;85.50;;;;;;5031503;28;20110;-76
2023/08/06 01:27:11;;;;;;;13.55;10.95;;;15.40;85.50;;;;;;5015227;28;20471;-77
2023/08/06 01:29:58;;;;;;;10.93;9.65;;;15.40;85.50;;;;;;5031918;28;20064;-77
2023/08/06 01:32:26;;;;;;;11.52;9.70;;;15.40;85.50;;;;;;5015350;28;20401;-77
2023/08/06 01:34:54;;;;;;;7.97;6.90;;;15.40;85.40;;;;;;5015209;28;20362;-76
2023/08/06 01:37:20;;;;;;;10.20;9.10;;;15.40;85.30;;;;;;4999063;28;20037;-77
2023/08/06 01:39:46;;;;;;;8.63;7.82;;;15.40;85.30;;;;;;5031196;28;20055;-77
2023/08/06 01:42:11;;;;;;;9.18;7.97;;;15.40;85.30;;;;;;5031220;28;20080;-77
2023/08/06 01:44:37;;;;;;;8.65;7.80;;;15.50;85.40;;;;;;5031143;28;20041;-77
2023/08/06 01:47:03;;;;;;;9.93;8.70;;;15.50;85.30;;;;;;5014808;28;20040;-77
2023/08/06 01:49:29;;;;;;;10.35;8.38;;;15.50;85.20;;;;;;4998413;28;20038;-77
2023/08/06 01:51:54;;;;;;;9.20;7.82;;;15.50;85.00;;;;;;5031375;28;20084;-77
2023/08/06 01:54:20;;;;;;;9.80;7.55;;;15.50;84.90;;;;;;5015157;28;20050;-76
2023/08/06 01:56:46;;;;;;;10.27;7.38;;;15.50;84.90;;;;;;5014818;28;20572;-77
2023/08/06 01:59:11;;;;;;;9.70;8.70;;;15.50;84.90;;;;;;5031162;28;20041;-77
2023/08/06 02:01:37;;;;;;;9.23;8.32;;;15.50;84.90;;;;;;4998396;28;20041;-76
2023/08/06 02:04:03;;;;;;;11.23;9.55;;;15.50;84.90;;;;;;4998442;28;20543;-77
2023/08/06 02:06:28;;;;;;;9.10;8.20;;;15.50;84.80;;;;;;5014720;28;20073;-77
2023/08/06 02:08:54;;;;;;;9.15;8.20;;;15.50;84.80;;;;;;4998799;28;20037;-76
2023/08/06 02:11:20;;;;;;;9.90;8.98;;;15.50;84.80;;;;;;5014824;28;20523;-76
2023/08/06 02:13:46;;;;;;;12.55;8.70;;;15.50;84.70;;;;;;5031399;28;20041;-77
2023/08/06 02:16:12;;;;;;;11.30;9.10;;;15.50;84.70;;;;;;5014584;28;20080;-77
2023/08/06 02:18:37;;;;;;;9.02;8.23;;;15.50;84.70;;;;;;5014776;28;20088;-77
2023/08/06 02:21:03;;;;;;;10.38;9.27;;;15.50;84.70;;;;;;5014706;28;20042;-77
2023/08/06 02:23:29;;;;;;;10.43;8.50;;;15.50;84.60;;;;;;5014783;28;20046;-77
2023/08/06 02:26:02;;;;;;;11.35;9.20;;;15.50;84.60;;;;;;5031108;28;20128;-77
2023/08/06 02:28:29;;;;;;;9.80;8.88;;;15.40;84.50;;;;;;5002054;28;20034;-77
2023/08/06 02:30:55;;;;;;;11.38;10.23;;;15.40;84.50;;;;;;5034623;28;20052;-77
2023/08/06 02:33:21;;;;;;;10.25;9.20;;;15.40;84.50;;;;;;5034554;28;20120;-77
2023/08/06 02:35:46;;;;;;;10.43;8.68;;;15.30;84.40;;;;;;5001734;28;20187;-77
2023/08/06 02:38:12;;;;;;;10.48;8.80;;;15.30;84.50;;;;;;5034522;28;20041;-77
2023/08/06 02:40:44;;;;;;;10.23;8.50;;;15.30;84.50;;;;;;5001557;28;20044;-77
2023/08/06 02:43:10;;;;;;;12.05;9.07;;;15.30;84.70;;;;;;5034236;28;20041;-77
2023/08/06 02:45:35;;;;;;;10.68;8.52;;;15.20;84.60;;;;;;5017927;28;20457;-76
2023/08/06 02:48:02;;;;;;;9.73;7.88;;;15.20;84.60;;;;;;5017987;28;20041;-77
2023/08/06 02:50:28;;;;;;;9.00;8.07;;;15.10;84.70;;;;;;5001848;28;20064;-77
2023/08/06 02:52:54;;;;;;;11.00;8.63;;;15.10;84.70;;;;;;5034144;28;20485;-76
2023/08/06 02:55:19;;;;;;;11.10;7.82;;;15.00;84.70;;;;;;5018003;28;20041;-77
2023/08/06 02:57:45;;;;;;;9.98;8.82;;;15.00;84.80;;;;;;5017971;28;20084;-77
2023/08/06 03:00:11;;;;;;;9.38;8.38;;;15.00;84.90;;;;;;5017641;28;20408;-77
2023/08/06 03:02:37;;;;;;;8.80;7.90;;;15.00;84.90;;;;;;5017791;28;20098;-77
2023/08/06 03:05:03;;;;;;;10.60;9.25;;;15.00;85.00;;;;;;5017747;28;20037;-77
2023/08/06 03:07:29;;;;;;;8.85;7.95;;;15.00;84.90;;;;;;5034053;28;20045;-77
2023/08/06 03:09:55;;;;;;;11.93;9.00;;;15.00;85.00;;;;;;5033825;28;20563;-77
2023/08/06 03:12:21;;;;;;;11.27;8.35;;;15.00;85.00;;;;;;5033721;28;20033;-77
2023/08/06 03:14:46;;;;;;;8.82;7.88;;;15.00;84.90;;;;;;5017364;28;20094;-77
2023/08/06 03:17:12;;;;;;;10.60;8.70;;;15.00;85.00;;;;;;5017262;28;20064;-77
2023/08/06 03:19:38;;;;;;;10.40;8.88;;;15.00;85.10;;;;;;5001156;28;20436;-77
2023/08/06 03:22:04;;;;;;;8.38;7.20;;;15.00;85.10;;;;;;5000805;28;20038;-77
2023/08/06 03:24:30;;;;;;;9.50;7.90;;;14.90;85.10;;;;;;5016913;28;20049;-77
2023/08/06 03:26:55;;;;;;;9.68;8.68;;;15.00;85.30;;;;;;5033565;28;20133;-77
2023/08/06 03:29:22;;;;;;;8.68;7.30;;;15.00;85.30;;;;;;5017345;28;20045;-77
2023/08/06 03:31:47;;;;;;;9.20;7.65;;;15.00;85.40;;;;;;5033769;28;20041;-77
2023/08/06 03:34:13;;;;;;;8.30;6.82;;;15.00;85.50;;;;;;5033557;28;20547;-77
2023/08/06 03:36:39;;;;;;;7.78;6.85;;;15.00;85.50;;;;;;5000604;28;20045;-77
2023/08/06 03:39:04;;;;;;;6.93;5.45;;;15.00;85.50;;;;;;5016325;28;20041;-77
2023/08/06 03:41:30;;;;;;;6.85;6.20;;;15.10;85.50;;;;;;5033108;28;20457;-77
2023/08/06 03:43:56;;;;;;;9.02;8.13;;;15.10;85.50;;;;;;5000604;28;20056;-77
2023/08/06 03:46:21;;;;;;;8.38;7.55;;;15.10;85.50;;;;;;5033158;28;20041;-77
2023/08/06 03:48:47;;;;;;;7.28;6.20;;;15.10;85.40;;;;;;5000253;28;20045;-77
2023/08/06 03:51:13;;;;;;;7.95;6.38;;;15.10;85.40;;;;;;5016690;28;20148;-77
2023/08/06 03:53:38;;;;;;;7.85;6.78;;;15.20;85.40;;;;;;5000395;28;20080;-77
2023/08/06 03:56:04;;;;;;;7.97;7.18;;;15.20;85.40;;;;;;5033090;28;20136;-77
2023/08/06 03:58:30;;;;;;;8.60;7.75;;;15.20;85.40;;;;;;5016481;28;20049;-77
2023/08/06 04:01:03;;;;;;;8.75;7.78;;;15.30;85.30;;;;;;5016448;28;20415;-77
2023/08/06 04:03:29;;;;;;;9.35;6.95;;;15.30;85.20;;;;;;5032894;28;20109;-77
2023/08/06 04:05:55;;;;;;;9.05;7.72;;;15.30;85.10;;;;;;5016447;28;20053;-77
2023/08/06 04:08:20;;;;;;;8.98;8.13;;;15.30;85.00;;;;;;4999889;28;20045;-77
2023/08/06 04:10:50;;;;;;;6.95;6.25;;;15.30;85.00;;;;;;5016359;28;20090;-77
2023/08/06 04:13:16;;;;;;;9.57;7.75;;;15.30;85.00;;;;;;5016253;28;20053;-77
2023/08/06 04:15:42;;;;;;;11.45;6.10;;;15.30;85.00;;;;;;5016239;28;20041;-77
2023/08/06 04:18:08;;;;;;;10.18;8.25;;;15.30;84.90;;;;;;5015964;28;20049;-77
2023/08/06 04:20:33;;;;;;;7.35;6.50;;;15.40;84.90;;;;;;5016248;28;20045;-77
2023/08/06 04:22:59;;;;;;;8.85;6.97;;;15.40;84.90;;;;;;4999690;28;20370;-77
2023/08/06 04:25:25;;;;;;;7.80;6.97;;;15.40;84.80;;;;;;4999459;28;20053;-77
2023/08/06 04:27:50;;;;;;;7.65;6.85;;;15.40;84.80;;;;;;5032366;28;20513;-77
2023/08/06 04:30:16;;;;;;;9.68;7.65;;;15.40;84.70;;;;;;5016168;28;20052;-77
2023/08/06 04:32:42;;;;;;;7.75;5.65;;;15.50;84.70;;;;;;4999613;28;20697;-77
2023/08/06 04:35:08;;;;;;;7.20;6.45;;;15.50;84.70;;;;;;5032435;28;20049;-77
2023/08/06 04:37:33;;;;;;;6.30;5.70;;;15.50;84.60;;;;;;5032138;28;20507;-77
2023/08/06 04:39:59;;;;;;;5.50;4.90;;;15.50;84.50;;;;;;5015677;28;20045;-77
2023/08/06 04:42:25;;;;;;;6.32;5.68;;;15.50;84.40;;;;;;5032414;28;20041;-77
2023/08/06 04:44:50;;;;;;;7.38;5.93;;;15.50;84.30;;;;;;5032070;28;20095;-77
2023/08/06 04:47:16;;;;;;;8.77;7.22;;;15.60;84.30;;;;;;5032115;28;20077;-77
2023/08/06 04:49:42;;;;;;;7.22;6.53;;;15.60;84.20;;;;;;5015517;28;20041;-77
2023/08/06 04:52:08;;;;;;;6.45;5.78;;;15.60;84.10;;;;;;4999467;28;20038;-77
2023/08/06 04:54:33;;;;;;;5.88;5.18;;;15.60;84.00;;;;;;5031998;28;20041;-77
2023/08/06 04:56:59;;;;;;;9.23;7.30;;;15.70;84.00;;;;;;5031925;28;20037;-77
2023/08/06 04:59:25;;;;;;;7.32;6.63;;;15.60;83.90;;;;;;5015475;28;20044;-77
2023/08/06 05:01:51;;;;;;;6.50;5.80;;;15.70;83.90;;;;;;5015375;28;20175;-78
2023/08/06 05:04:16;;;;;;;7.88;6.93;;;15.70;83.80;;;;;;4983124;28;20060;-77
2023/08/06 05:06:42;;;;;;;5.82;5.18;;;15.70;83.80;;;;;;5032110;28;20123;-77
2023/08/06 05:09:08;;;;;;;6.53;5.85;;;15.70;83.70;;;;;;5015362;28;20489;-78
2023/08/06 05:11:33;;;;;;;8.00;6.82;;;15.80;83.80;;;;;;5015380;28;20045;-78
2023/08/06 05:13:59;;;;;;;5.90;5.32;;;15.80;83.70;;;;;;5015378;28;20068;-78
2023/08/06 05:16:25;;;;;;;8.20;7.40;;;15.80;83.70;;;;;;5015228;28;20120;-77
2023/08/06 05:18:50;;;;;;;7.80;7.00;;;15.80;83.60;;;;;;5031728;28;20133;-77
2023/08/06 05:21:16;;;;;;;12.98;7.55;;;15.90;83.70;;;;;;5015075;28;20092;-77
2023/08/06 05:23:42;;;;;;;9.55;8.38;;;15.80;83.60;;;;;;5031681;28;20044;-78
2023/08/06 05:26:08;;;;;;;6.95;6.25;;;15.90;83.60;;;;;;5031334;28;20049;-78
2023/08/06 05:28:34;;;;;;;7.50;6.80;;;15.90;83.60;;;;;;5031570;28;20041;-78
2023/08/06 05:31:04;;;;;;;7.60;6.20;;;15.90;83.60;;;;;;4998795;28;20045;-78
2023/08/06 05:33:30;;;;;;;9.68;7.53;;;15.90;83.60;;;;;;5015018;28;20133;-78
2023/08/06 05:35:56;;;;;;;6.25;5.32;;;15.90;83.60;;;;;;4999064;28;20128;-78
2023/08/06 05:38:22;;;;;;;8.85;7.18;;;15.90;83.60;;;;;;5015365;28;20396;-77
2023/08/06 05:40:48;;;;;;;9.77;8.77;;;15.90;83.50;;;;;;5015050;28;20052;-78
2023/08/06 05:43:14;;;;;;;9.98;7.47;;;15.90;83.40;;;;;;5015257;28;20041;-75
2023/08/06 05:45:45;;;;;;;7.82;7.00;;;15.90;83.40;;;;;;5014952;28;20045;-75
2023/08/06 05:48:10;;;;;;;6.82;6.13;;;15.90;83.50;;;;;;5031621;28;20547;-75
2023/08/06 05:50:36;;;;;;;8.88;7.97;;;15.90;83.60;;;;;;5014955;28;20189;-77
2023/08/06 05:53:02;;;;;;;9.02;8.13;;;16.00;83.60;;;;;;5031330;28;20045;-76
2023/08/06 05:55:28;;;;;;;10.10;9.05;;;15.90;83.60;;;;;;5031270;28;20045;-76
2023/08/06 05:57:54;;;;;;;9.65;8.52;;;16.00;83.70;;;;;;5031590;28;20041;-76
2023/08/06 06:00:21;;;;;;;8.55;7.63;;;16.00;83.70;;;;;;5014848;28;20204;-76
2023/08/06 06:02:47;;;;;;;9.73;7.13;;;16.00;83.70;;;;;;5018088;28;20065;-77
2023/08/06 06:05:13;;;;;;;9.82;8.55;;;16.00;83.80;;;;;;5034969;28;20499;-76
2023/08/06 06:07:38;;;;;;;8.68;7.78;;;16.00;84.00;;;;;;5002272;28;20033;-77
2023/08/06 06:10:05;;;;;;;8.60;7.70;;;16.00;84.00;;;;;;5018761;28;20160;-77
2023/08/06 06:12:30;;;;;;;7.45;6.30;;;16.00;84.10;;;;;;5002381;28;20389;-77
2023/08/06 06:14:56;;;;;;;9.57;8.18;;;16.00;84.10;;;;;;5002347;28;20052;-76
2023/08/06 06:17:22;;;;;;;7.72;7.00;;;16.00;84.20;;;;;;5018459;28;20049;-77
2023/08/06 06:19:48;;;;;;;9.95;8.18;;;16.00;84.30;;;;;;5034690;28;20508;-77
2023/08/06 06:22:14;;;;;;;11.23;9.45;;;16.00;84.30;;;;;;5034731;28;20045;-76
2023/08/06 06:24:40;;;;;;;8.30;7.57;;;16.10;84.40;;;;;;5034792;28;20041;-77
2023/08/06 06:27:05;;;;;;;10.23;8.13;;;16.10;84.40;;;;;;5018238;28;20061;-77
2023/08/06 06:29:31;;;;;;;10.45;8.63;;;16.10;84.40;;;;;;5002139;28;20045;-77
2023/08/06 06:31:57;;;;;;;8.77;7.97;;;16.10;84.30;;;;;;5001830;28;20041;-76
2023/08/06 06:34:22;;;;;;;9.50;8.50;;;16.20;84.30;;;;;;5018322;28;20080;-77
2023/08/06 06:36:48;;;;;;;10.15;7.95;;;16.20;84.30;;;;;;5002046;28;20397;-76
2023/08/06 06:39:15;;;;;;;9.35;8.45;;;16.20;84.30;;;;;;5018178;28;20041;-76
2023/08/06 06:41:41;;;;;;;10.98;8.50;;;16.30;84.30;;;;;;5017921;28;20045;-77
2023/08/06 06:44:06;;;;;;;8.70;7.90;;;16.30;84.30;;;;;;5018109;28;20090;-76
2023/08/06 06:46:32;;;;;;;8.63;7.82;;;16.30;84.20;;;;;;5034240;28;20033;-76
2023/08/06 06:48:58;;;;;;;9.82;8.50;;;16.40;84.20;;;;;;5017925;28;20106;-77
2023/08/06 06:51:23;;;;;;;10.50;9.40;;;16.40;84.10;;;;;;5034236;28;20077;-77
2023/08/06 06:53:49;;;;;;;8.77;7.57;;;16.40;84.00;;;;;;5017784;28;20045;-76
2023/08/06 06:56:15;;;;;;;9.70;8.75;;;16.40;84.00;;;;;;5034092;28;20047;-76
2023/08/06 06:58:40;;;;;;;7.78;7.03;;;16.40;84.00;;;;;;5034044;28;20085;-76
2023/08/06 07:01:07;;;;;;;9.90;8.98;;;16.50;84.10;;;;;;5034014;28;20110;-76
2023/08/06 07:03:33;;;;;;;9.02;8.15;;;16.50;84.20;;;;;;5034317;28;20041;-76
2023/08/06 07:05:59;;;;;;;9.80;8.80;;;16.50;84.20;;;;;;5017478;28;20037;-76
2023/08/06 07:08:25;;;;;;;9.18;8.35;;;16.50;84.10;;;;;;5017361;28;20038;-76
2023/08/06 07:10:59;;;;;;;8.18;7.38;;;16.60;84.00;;;;;;5034338;28;20092;-76
2023/08/06 07:13:24;;;;;;;8.98;8.07;;;16.60;84.00;;;;;;5017476;28;20045;-76
2023/08/06 07:15:50;;;;;;;10.10;9.10;;;16.60;84.10;;;;;;5017413;28;20045;-76
2023/08/06 07:18:16;;;;;;;10.38;8.77;;;16.70;84.60;;;;;;5001018;28;20083;-76
2023/08/06 07:20:41;;;;;;;7.95;7.25;;;16.70;84.30;;;;;;5017384;28;20503;-76
2023/08/06 07:23:07;;;;;;;8.20;7.40;;;16.70;84.00;;;;;;5001252;28;20033;-76
2023/08/06 07:25:33;;;;;;;11.02;9.93;;;16.70;83.80;;;;;;5033398;28;20085;-76
2023/08/06 07:27:59;;;;;;;8.55;7.63;;;16.70;83.90;;;;;;5033506;28;20045;-76
2023/08/06 07:30:24;;;;;;;8.10;7.30;;;16.80;83.90;;;;;;5033485;28;20516;-76
2023/08/06 07:32:50;;;;;;;10.30;8.32;;;16.80;83.80;;;;;;5016760;28;20099;-76
2023/08/06 07:35:16;;;;;;;8.73;7.35;;;16.80;83.70;;;;;;5000762;28;20049;-76
2023/08/06 07:37:41;;;;;;;9.63;8.63;;;16.90;83.70;;;;;;5016637;28;20084;-76
2023/08/06 07:40:08;;;;;;;9.57;8.60;;;16.90;83.60;;;;;;5033141;28;20128;-77
2023/08/06 07:42:34;;;;;;;8.18;7.38;;;16.90;83.40;;;;;;5033315;28;20049;-76
2023/08/06 07:45:00;;;;;;;10.30;9.15;;;16.90;83.20;;;;;;5033398;28;20037;-76
2023/08/06 07:47:25;;;;;;;8.77;7.88;;;17.00;83.20;;;;;;5033156;28;20037;-76
2023/08/06 07:49:51;;;;;;;9.35;8.45;;;17.00;83.20;;;;;;5016533;28;20029;-76
2023/08/06 07:52:17;;;;;;;10.45;7.97;;;17.00;83.00;;;;;;5016672;28;20041;-76
2023/08/06 07:54:43;;;;;;;8.52;7.70;;;17.10;82.80;;;;;;5032999;28;20052;-76
2023/08/06 07:57:08;;;;;;;9.07;8.20;;;17.10;82.90;;;;;;5033279;28;20041;-76
2023/08/06 07:59:34;;;;;;;9.25;8.35;;;17.10;83.00;;;;;;5033067;28;20041;-76
2023/08/06 08:02:01;;;;;;;10.50;9.45;;;17.20;83.20;;;;;;4999981;28;20045;-76
2023/08/06 08:04:26;;;;;;;11.32;9.02;;;17.20;83.10;;;;;;5032799;28;20048;-76
2023/08/06 08:06:52;;;;;;;10.57;8.75;;;17.30;83.10;;;;;;5016357;28;20037;-76
2023/08/06 08:09:18;;;;;;;10.63;8.93;;;17.30;82.60;;;;;;5016239;28;20044;-76
2023/08/06 08:11:44;;;;;;;8.95;8.13;;;17.30;82.50;;;;;;5033044;28;20049;-76
2023/08/06 08:14:09;;;;;;;10.27;7.90;;;17.40;82.50;;;;;;5016231;28;20492;-76
2023/08/06 08:16:35;;;;;;;9.65;8.65;;;17.40;82.40;;;;;;5016277;28;20045;-76
2023/08/06 08:19:01;;;;;;;9.65;8.70;;;17.40;82.20;;;;;;5016395;28;20084;-76
2023/08/06 08:21:27;;;;;;;9.07;8.27;;;17.50;82.20;;;;;;4999917;28;20045;-76
2023/08/06 08:23:52;;;;;;;9.40;8.43;;;17.50;82.00;;;;;;5015904;28;20038;-76
2023/08/06 08:26:18;;;;;;;9.65;8.77;;;17.50;81.80;;;;;;5015879;28;20107;-76
2023/08/06 08:28:44;;;;;;;10.60;9.50;;;17.60;81.90;;;;;;5016128;28;20041;-76
2023/08/06 08:31:11;;;;;;;10.55;9.55;;;17.60;81.70;;;;;;5032488;28;20037;-75
2023/08/06 08:33:37;;;;;;;8.90;8.10;;;17.60;81.30;;;;;;5015809;28;20072;-75
2023/08/06 08:36:04;;;;;;;8.68;7.25;;;17.60;81.10;;;;;;4999767;28;20037;-75
2023/08/06 08:38:29;;;;;;;12.50;8.52;;;17.70;81.40;;;;;;5032214;28;20051;-75
2023/08/06 08:40:55;;;;;;;10.48;9.55;;;17.70;81.40;;;;;;5015665;28;20037;-76
2023/08/06 08:43:22;;;;;;;9.15;8.15;;;17.70;81.50;;;;;;5015632;28;20089;-76
2023/08/06 08:45:50;;;;;;;6.65;6.05;;;17.70;81.60;;;;;;5032450;28;20033;-75
2023/08/06 08:48:17;;;;;;;9.80;8.90;;;17.80;81.70;;;;;;5032114;28;20045;-76
2023/08/06 08:50:45;;;;;;;8.88;8.07;;;17.90;81.50;;;;;;5015903;28;20041;-76
2023/08/06 08:53:12;;;;;;;7.00;6.40;;;18.00;81.30;;;;;;5032078;28;20043;-76
2023/08/06 08:55:39;;;;;;;8.80;7.20;;;18.00;81.30;;;;;;5031990;28;20485;-76
2023/08/06 08:58:05;;;;;;;8.05;7.25;;;18.10;81.20;;;;;;5015439;28;20124;-76
2023/08/06 09:00:31;;;;;;;7.47;6.68;;;18.20;81.10;;;;;;5015663;28;20125;-76
2023/08/06 09:02:59;;;;;;;9.57;7.38;;;18.20;80.40;;;;;;5015444;28;20038;-76
2023/08/06 09:05:28;;;;;;;8.60;6.13;;;18.30;80.10;;;;;;5032032;28;20447;-76
2023/08/06 09:07:56;;;;;;;7.25;6.55;;;18.40;80.50;;;;;;5031851;28;20532;-76
2023/08/06 09:10:24;;;;;;;7.25;6.55;;;18.50;80.80;;;;;;5015936;28;20041;-76
2023/08/06 09:12:53;;;;;;;6.95;6.10;;;18.60;80.80;;;;;;5031751;28;20064;-76
2023/08/06 09:15:20;;;;;;;6.90;6.22;;;18.70;80.80;;;;;;5015327;28;20045;-76
2023/08/06 09:17:46;;;;;;;5.88;5.38;;;18.90;80.90;;;;;;5015169;28;20526;-76
2023/08/06 09:20:16;;;;;;;6.70;5.47;;;19.00;80.40;;;;;;4999085;28;20048;-76
2023/08/06 09:22:42;;;;;;;6.68;5.13;;;19.10;79.70;;;;;;5015486;28;20045;-76
2023/08/06 09:25:11;;;;;;;6.97;6.30;;;19.20;79.20;;;;;;5031390;28;20087;-76
2023/08/06 09:27:40;;;;;;;7.10;6.40;;;19.30;78.80;;;;;;5015678;28;20051;-76
2023/08/06 09:30:07;;;;;;;7.00;6.30;;;19.40;77.80;;;;;;5031809;28;20060;-75
2023/08/06 09:32:47;;;;;;;6.25;5.45;;;19.50;77.90;;;;;;5031856;28;20068;-76
2023/08/06 09:35:16;;;;;;;5.22;4.40;;;19.60;77.20;;;;;;5015149;28;20046;-76
2023/08/06 09:37:42;;;;;;;6.20;5.60;;;19.60;77.50;;;;;;5001997;28;20045;-76
2023/08/06 09:40:27;;;;;;;5.70;5.20;;;19.70;77.10;;;;;;5035482;28;20124;-76
2023/08/06 09:42:53;;;;;;;5.45;4.95;;;19.70;76.50;;;;;;5035437;28;20511;-76
2023/08/06 09:45:19;;;;;;;5.88;5.30;;;19.80;76.70;;;;;;5018987;28;20088;-76
2023/08/06 09:47:45;;;;;;;6.10;5.50;;;19.80;76.50;;;;;;5018862;28;20045;-76
2023/08/06 09:50:18;;;;;;;6.15;5.65;;;19.90;76.00;;;;;;5019150;28;20124;-76
2023/08/06 09:52:45;;;;;;;8.23;7.25;;;19.90;76.40;;;;;;5035311;28;20052;-76
2023/08/06 09:55:14;;;;;;;6.28;4.80;;;20.00;76.70;;;;;;5018896;28;20045;-76
2023/08/06 09:57:41;;;;;;;6.28;4.78;;;20.00;76.40;;;;;;5019005;28;20037;-76
2023/08/06 10:00:11;;;;;;;5.68;5.05;;;20.10;76.00;;;;;;5018656;28;20043;-76
2023/08/06 10:02:38;;;;;;;5.63;5.05;;;20.20;75.40;;;;;;5034952;28;20052;-76
2023/08/06 10:05:05;;;;;;;5.93;4.60;;;20.20;75.10;;;;;;5018338;28;20034;-76
2023/08/06 10:07:31;;;;;;;6.65;4.80;;;20.30;74.80;;;;;;5001308;28;20037;-76
2023/08/06 10:09:58;;;;;;;5.18;4.60;;;20.40;74.60;;;;;;5017907;28;20045;-76
2023/08/06 10:12:25;;;;;;;5.63;4.22;;;20.40;74.30;;;;;;5034800;28;20141;-76
2023/08/06 10:14:54;;;;;;;5.03;3.92;;;20.50;74.10;;;;;;5035023;28;20048;-78
2023/08/06 10:17:23;;;;;;;5.70;5.10;;;20.60;73.60;;;;;;5034941;28;20504;-78
2023/08/06 10:19:51;;;;;;;5.00;4.45;;;20.60;73.10;;;;;;5034389;28;20160;-79
2023/08/06 10:22:18;;;;;;;5.10;4.20;;;20.60;73.00;;;;;;5017644;28;20099;-78
2023/08/06 10:24:51;;;;;;;4.97;4.32;;;20.70;73.20;;;;;;5034733;28;20420;-78
2023/08/06 10:27:30;;;;;;;4.35;3.95;;;20.70;72.70;;;;;;5002077;28;20063;-78
2023/08/06 10:30:16;;;;;;;5.43;4.93;;;20.80;72.30;;;;;;5035081;28;20056;-78
2023/08/06 10:32:53;;;;;;;4.93;4.30;;;20.80;72.00;;;;;;5018107;28;20095;-78
2023/08/06 10:35:43;;;;;;;4.65;3.80;;;20.80;71.20;;;;;;5035074;28;20424;-78
2023/08/06 10:38:22;;;;;;;4.63;3.22;;;20.80;70.80;;;;;;5034786;28;20045;-78
2023/08/06 10:41:06;;;;;;;6.15;3.65;;;20.70;70.40;;;;;;5018555;28;20382;-78
2023/08/06 10:43:38;;;;;;;4.63;4.18;;;20.80;70.50;;;;;;5034534;28;20094;-78
2023/08/06 10:46:12;;;;;;;6.47;4.70;;;20.70;70.40;;;;;;5034675;28;20049;-78
2023/08/06 10:48:45;;;;;;;3.80;3.35;;;20.70;70.20;;;;;;5034635;28;20381;-78
2023/08/06 10:51:12;;;;;;;4.57;3.40;;;20.70;70.70;;;;;;5034572;28;20571;-78
2023/08/06 10:53:42;;;;;;;3.95;3.55;;;20.70;71.20;;;;;;5034725;28;20460;-78
2023/08/06 10:56:19;;;;;;;3.58;2.95;;;20.80;70.50;;;;;;5034468;28;20528;-78
2023/08/06 10:58:46;;;;;;;6.15;4.00;;;20.80;70.10;;;;;;5034622;28;20127;-77
2023/08/06 11:01:12;;;;;;;5.30;3.65;;;20.80;69.70;;;;;;5034548;28;20397;-78
2023/08/06 11:03:39;;;;;;;3.78;3.05;;;20.90;70.10;;;;;;5034234;28;20092;-78
2023/08/06 11:06:07;;;;;;;3.60;2.88;;;20.90;70.00;;;;;;5017894;28;20041;-78
2023/08/06 11:08:47;;;;;;;3.92;3.10;;;20.90;69.50;;;;;;5034309;28;20029;-78
2023/08/06 11:11:16;;;;;;;4.20;3.20;;;21.00;70.10;;;;;;5034151;28;20041;-78
2023/08/06 11:13:49;;;;;;;3.63;2.90;;;21.00;70.00;;;;;;5017530;28;20041;-78
2023/08/06 11:16:17;;;;;;;4.03;3.00;;;21.00;70.10;;;;;;5017426;28;20043;-76
2023/08/06 11:18:43;;;;;;;3.05;2.60;;;21.10;70.00;;;;;;5033697;28;20049;-75
2023/08/06 11:21:09;;;;;;;4.72;3.10;;;21.20;70.10;;;;;;5017116;28;20049;-75
2023/08/06 11:23:35;;;;;;;3.78;2.92;;;21.30;70.10;;;;;;5033875;28;20037;-75
2023/08/06 11:26:01;;;;;;;4.40;3.33;;;21.40;69.90;;;;;;5017208;28;20201;-78
2023/08/06 11:28:27;;;;;;;4.47;3.20;;;21.50;68.90;;;;;;5017302;28;20404;-78
2023/08/06 11:30:55;;;;;;;4.93;3.50;;;21.60;68.20;;;;;;5017508;28;20045;-78
2023/08/06 11:33:30;;;;;;;4.28;2.97;;;21.60;66.70;;;;;;5017198;28;20120;-78
2023/08/06 11:35:56;;;;;;;3.40;2.80;;;21.50;65.80;;;;;;5033805;28;20401;-77
2023/08/06 11:38:24;;;;;;;3.15;2.70;;;21.50;66.90;;;;;;5016973;28;20508;-77
2023/08/06 11:40:51;;;;;;;4.10;2.80;;;21.50;67.60;;;;;;5017255;28;20046;-77
2023/08/06 11:43:19;;;;;;;3.95;3.25;;;21.60;67.80;;;;;;5033587;28;20042;-78
2023/08/06 11:45:45;;;;;;;4.97;2.70;;;21.60;67.60;;;;;;5033305;28;20038;-78
2023/08/06 11:48:10;;;;;;;3.40;2.25;;;21.70;67.70;;;;;;5017567;28;20041;-78
2023/08/06 11:50:38;;;;;;;2.88;2.30;;;21.70;65.40;;;;;;5016822;28;20489;-78
2023/08/06 11:53:04;;;;;;;3.75;2.35;;;21.70;66.20;;;;;;5033318;28;20049;-77
2023/08/06 11:55:31;;;;;;;3.15;2.47;;;21.70;66.20;;;;;;5016798;28;20041;-77
2023/08/06 11:57:57;;;;;;;3.78;2.25;;;21.80;66.80;;;;;;5033270;28;20041;-77
2023/08/06 12:00:25;;;;;;;3.35;1.90;;;21.90;66.90;;;;;;5032492;28;20045;-78
2023/08/06 12:02:52;;;;;;;2.63;2.00;;;21.90;65.20;;;;;;5033125;28;20091;-78
2023/08/06 12:05:25;;;;;;;2.92;2.17;;;21.90;63.20;;;;;;5032866;28;20087;-78
2023/08/06 12:07:52;;;;;;;2.10;1.50;;;22.00;63.20;;;;;;5033335;28;20366;-78
2023/08/06 12:10:20;;;;;;;2.20;1.60;;;22.00;63.50;;;;;;5032997;28;20069;-78
2023/08/06 12:12:46;;;;;;;2.35;1.70;;;22.00;62.20;;;;;;5033031;28;20081;-75
2023/08/06 12:15:12;;;;;;;3.83;1.40;;;22.00;61.60;;;;;;5032846;28;20104;-75
2023/08/06 12:17:38;;;;;;;3.97;2.03;;;22.00;62.20;;;;;;4999833;28;20129;-75
2023/08/06 12:20:05;;;;;;;2.45;1.40;;;22.00;62.40;;;;;;5032409;28;20080;-75
2023/08/06 12:22:35;;;;;;;4.40;2.00;;;22.00;62.10;;;;;;5016006;28;20037;-75
2023/08/06 12:25:12;;;;;;;1.85;1.30;;;22.00;62.40;;;;;;5032656;28;20064;-75
2023/08/06 12:27:41;;;;;;;2.25;1.70;;;22.10;61.90;;;;;;5032490;28;20049;-75
2023/08/06 12:30:07;;;;;;;2.80;1.90;;;22.10;61.70;;;;;;5032706;28;20658;-75
2023/08/06 12:32:34;;;;;;;3.25;1.60;;;22.10;61.00;;;;;;5015903;28;20038;-75
2023/08/06 12:35:00;;;;;;;2.42;1.65;;;22.20;61.90;;;;;;5032274;28;20053;-75
2023/08/06 12:37:26;;;;;;;2.17;1.75;;;22.20;61.60;;;;;;5032339;28;20056;-75
2023/08/06 12:39:52;;;;;;;2.75;1.85;;;22.30;62.00;;;;;;5032101;28;20060;-75
2023/08/06 12:42:18;;;;;;;3.03;2.25;;;22.40;63.00;;;;;;5015621;28;20049;-75